createdAt,value
2023-03-22T00:02:05.811Z,12.48
2023-03-22T00:04:32.657Z,12.35
2023-03-22T00:06:59.359Z,13.00
2023-03-22T00:09:25.978Z,13.15
2023-03-22T00:11:52.577Z,13.02
2023-03-22T00:14:19.540Z,12.90
2023-03-22T00:16:46.405Z,13.07
2023-03-22T00:19:13.002Z,12.77
2023-03-22T00:21:39.514Z,12.65
2023-03-22T00:24:06.544Z,12.95
2023-03-22T00:26:34.616Z,13.65
2023-03-22T00:29:01.172Z,13.60
2023-03-22T00:31:28.910Z,13.90
2023-03-22T00:33:58.969Z,14.50
2023-03-22T00:36:25.751Z,13.55
2023-03-22T00:38:52.291Z,14.48
2023-03-22T00:41:22.324Z,13.90
2023-03-22T00:43:49.949Z,14.50
2023-03-22T00:46:19.415Z,13.82
2023-03-22T00:48:46.044Z,13.52
2023-03-22T00:51:13.882Z,13.82
2023-03-22T00:53:43.210Z,13.65
2023-03-22T00:56:13.854Z,14.30
2023-03-22T00:58:40.868Z,13.23
2023-03-22T01:01:07.470Z,13.60
2023-03-22T01:03:38.721Z,14.35
2023-03-22T01:06:05.677Z,14.27
2023-03-22T01:08:32.944Z,13.93
2023-03-22T01:11:01.151Z,14.25
2023-03-22T01:13:28.053Z,14.50
2023-03-22T01:15:54.580Z,14.35
2023-03-22T01:18:22.303Z,14.98
2023-03-22T01:20:48.767Z,13.65
2023-03-22T01:23:15.420Z,14.90
2023-03-22T01:25:41.935Z,14.48
2023-03-22T01:28:08.949Z,14.90
2023-03-22T01:30:35.580Z,14.30
2023-03-22T01:33:02.288Z,15.80
2023-03-22T01:35:28.933Z,15.25
2023-03-22T01:37:55.556Z,15.23
2023-03-22T01:40:22.103Z,16.45
2023-03-22T01:42:48.672Z,16.38
2023-03-22T01:45:15.378Z,16.50
2023-03-22T01:47:44.100Z,17.05
2023-03-22T01:50:10.898Z,16.90
2023-03-22T01:52:38.312Z,15.50
2023-03-22T01:55:06.545Z,16.58
2023-03-22T01:57:37.519Z,15.80
2023-03-22T02:00:12.182Z,15.10
2023-03-22T02:02:38.899Z,15.25
2023-03-22T02:05:05.770Z,17.23
2023-03-22T02:07:35.594Z,15.52
2023-03-22T02:10:02.061Z,15.68
2023-03-22T02:12:57.815Z,15.65
2023-03-22T02:15:55.880Z,16.65
2023-03-22T02:18:48.880Z,16.70
2023-03-22T02:21:49.049Z,16.10
2023-03-22T02:24:34.784Z,17.05
2023-03-22T02:27:10.525Z,16.98
2023-03-22T02:29:52.560Z,16.10
2023-03-22T02:32:27.958Z,17.10
2023-03-22T02:35:09.761Z,16.23
2023-03-22T02:38:17.470Z,18.13
2023-03-22T02:40:58.869Z,17.58
2023-03-22T02:43:41.592Z,17.10
2023-03-22T02:46:14.453Z,17.08
2023-03-22T02:49:16.300Z,16.98
2023-03-22T02:51:49.005Z,17.70
2023-03-22T02:54:26.255Z,17.13
2023-03-22T02:57:01.288Z,17.35
2023-03-22T02:59:32.000Z,16.50
2023-03-22T03:02:03.741Z,16.77
2023-03-22T03:04:37.840Z,17.27
2023-03-22T03:07:09.352Z,16.73
2023-03-22T03:09:39.189Z,16.35
2023-03-22T03:12:13.617Z,16.60
2023-03-22T03:14:40.243Z,17.98
2023-03-22T03:17:29.676Z,16.88
2023-03-22T03:20:08.570Z,16.98
2023-03-22T03:22:47.203Z,16.42
2023-03-22T03:25:21.020Z,16.55
2023-03-22T03:27:59.836Z,15.70
2023-03-22T03:30:35.445Z,16.60
2023-03-22T03:33:09.360Z,17.27
2023-03-22T03:35:44.016Z,16.80
2023-03-22T03:38:17.447Z,17.33
2023-03-22T03:40:48.580Z,16.92
2023-03-22T03:43:16.384Z,18.00
2023-03-22T03:45:43.016Z,16.45
2023-03-22T03:48:17.863Z,17.95
2023-03-22T03:50:44.937Z,17.80
2023-03-22T03:53:11.406Z,17.55
2023-03-22T03:55:37.989Z,17.95
2023-03-22T03:58:04.491Z,16.98
2023-03-22T04:00:31.161Z,17.40
2023-03-22T04:02:57.648Z,17.77
2023-03-22T04:05:24.132Z,17.83
2023-03-22T04:07:50.663Z,18.38
2023-03-22T04:10:17.316Z,16.70
2023-03-22T04:12:43.946Z,16.65
2023-03-22T04:15:12.255Z,17.73
2023-03-22T04:17:39.582Z,16.08
2023-03-22T04:20:09.552Z,15.48
2023-03-22T04:22:38.385Z,16.58
2023-03-22T04:25:11.657Z,15.98
2023-03-22T04:27:42.446Z,15.80
2023-03-22T04:30:11.239Z,16.15
2023-03-22T04:32:38.868Z,15.50
2023-03-22T04:35:05.869Z,14.70
2023-03-22T04:37:32.399Z,15.65
2023-03-22T04:39:59.344Z,16.30
2023-03-22T04:42:29.712Z,17.27
2023-03-22T04:44:56.160Z,16.92
2023-03-22T04:47:26.255Z,16.15
2023-03-22T04:49:52.736Z,15.95
2023-03-22T04:52:19.246Z,16.20
2023-03-22T04:54:45.741Z,15.52
2023-03-22T04:57:12.289Z,15.75
2023-03-22T04:59:38.800Z,16.40
2023-03-22T05:02:05.542Z,16.38
2023-03-22T05:04:32.280Z,14.90
2023-03-22T05:06:58.793Z,16.50
2023-03-22T05:09:25.434Z,15.45
2023-03-22T05:11:52.013Z,16.65
2023-03-22T05:14:18.502Z,15.95
2023-03-22T05:16:45.257Z,14.30
2023-03-22T05:19:14.294Z,15.32
2023-03-22T05:21:44.173Z,14.02
2023-03-22T05:24:11.475Z,15.27
2023-03-22T05:26:42.167Z,14.02
2023-03-22T05:29:11.706Z,14.40
2023-03-22T05:31:38.367Z,14.30
2023-03-22T05:34:04.938Z,15.05
2023-03-22T05:36:31.624Z,15.65
2023-03-22T05:38:58.143Z,15.18
2023-03-22T05:41:24.675Z,15.07
2023-03-22T05:43:51.165Z,16.45
2023-03-22T05:46:17.821Z,14.85
2023-03-22T05:48:44.435Z,14.90
2023-03-22T05:51:17.381Z,15.35
2023-03-22T05:53:45.457Z,15.73
2023-03-22T05:56:12.455Z,15.80
2023-03-22T05:58:39.759Z,15.93
2023-03-22T06:01:08.590Z,17.10
2023-03-22T06:03:35.484Z,15.98
2023-03-22T06:06:02.216Z,15.90
2023-03-22T06:08:29.049Z,15.95
2023-03-22T06:10:55.554Z,16.15
2023-03-22T06:13:22.174Z,15.65
2023-03-22T06:15:48.648Z,15.43
2023-03-22T06:18:15.483Z,16.25
2023-03-22T06:20:42.517Z,15.57
2023-03-22T06:23:09.082Z,14.95
2023-03-22T06:25:38.355Z,14.65
2023-03-22T06:28:07.500Z,15.27
2023-03-22T06:30:35.221Z,14.85
2023-03-22T06:33:05.384Z,14.70
2023-03-22T06:35:35.361Z,16.42
2023-03-22T06:38:02.048Z,15.32
2023-03-22T06:40:28.546Z,16.60
2023-03-22T06:42:55.027Z,14.90
2023-03-22T06:45:24.347Z,14.20
2023-03-22T06:47:50.993Z,14.27
2023-03-22T06:50:17.546Z,14.45
2023-03-22T06:52:44.070Z,13.52
2023-03-22T06:55:10.607Z,14.60
2023-03-22T06:57:37.125Z,14.05
2023-03-22T07:00:05.380Z,13.85
2023-03-22T07:02:31.940Z,14.43
2023-03-22T07:04:58.412Z,13.70
2023-03-22T07:07:24.878Z,13.93
2023-03-22T07:09:52.814Z,13.07
2023-03-22T07:12:19.258Z,13.18
2023-03-22T07:14:46.104Z,12.60
2023-03-22T07:17:14.091Z,12.93
2023-03-22T07:19:42.671Z,11.93
2023-03-22T07:22:09.408Z,11.82
2023-03-22T07:24:40.381Z,12.25
2023-03-22T07:27:11.184Z,11.32
2023-03-22T07:29:37.747Z,11.57
2023-03-22T07:32:04.476Z,11.52
2023-03-22T07:34:31.246Z,10.95
2023-03-22T07:36:57.771Z,11.60
2023-03-22T07:39:28.916Z,12.10
2023-03-22T07:41:56.003Z,12.27
2023-03-22T07:44:22.952Z,12.13
2023-03-22T07:46:51.670Z,11.18
2023-03-22T07:49:18.813Z,11.73
2023-03-22T07:51:47.982Z,11.02
2023-03-22T07:54:30.563Z,10.95
2023-03-22T07:56:59.358Z,11.13
2023-03-22T07:59:25.936Z,10.57
2023-03-22T08:01:52.553Z,9.73
2023-03-22T08:04:20.931Z,10.52
2023-03-22T08:06:47.565Z,10.73
2023-03-22T08:09:14.073Z,10.45
2023-03-22T08:11:40.572Z,10.27
2023-03-22T08:14:07.057Z,10.75
2023-03-22T08:16:33.852Z,10.88
2023-03-22T08:19:00.728Z,10.02
2023-03-22T08:21:27.493Z,10.45
2023-03-22T08:23:54.384Z,9.82
2023-03-22T08:26:22.144Z,10.60
2023-03-22T08:28:48.774Z,9.50
2023-03-22T08:31:17.351Z,10.10
2023-03-22T08:33:44.853Z,9.68
2023-03-22T08:36:14.478Z,9.65
2023-03-22T08:38:42.444Z,9.45
2023-03-22T08:41:09.132Z,9.93
2023-03-22T08:43:35.594Z,9.10
2023-03-22T08:46:05.245Z,8.48
2023-03-22T08:48:31.865Z,9.27
2023-03-22T08:50:58.516Z,8.48
2023-03-22T08:53:25.122Z,8.55
2023-03-22T08:55:51.647Z,8.07
2023-03-22T08:58:19.983Z,8.43
2023-03-22T09:00:49.449Z,8.55
2023-03-22T09:03:17.214Z,8.43
2023-03-22T09:05:43.919Z,8.30
2023-03-22T09:08:18.547Z,8.60
2023-03-22T09:10:51.161Z,7.38
2023-03-22T09:13:18.340Z,8.50
2023-03-22T09:15:45.228Z,7.63
2023-03-22T09:18:12.139Z,8.45
2023-03-22T09:20:39.035Z,9.02
2023-03-22T09:23:06.571Z,8.00
2023-03-22T09:25:33.238Z,8.30
2023-03-22T09:27:59.737Z,8.23
2023-03-22T09:30:27.212Z,8.27
2023-03-22T09:32:54.198Z,6.93
2023-03-22T09:35:20.852Z,7.20
2023-03-22T09:37:49.399Z,6.88
2023-03-22T09:40:17.441Z,6.85
2023-03-22T09:42:47.590Z,6.50
2023-03-22T09:45:20.613Z,6.18
2023-03-22T09:47:51.107Z,5.68
2023-03-22T09:50:23.777Z,6.00
2023-03-22T09:52:51.070Z,5.18
2023-03-22T09:55:21.836Z,5.13
2023-03-22T09:58:23.290Z,5.55
2023-03-22T10:01:01.527Z,5.18
2023-03-22T10:03:49.850Z,5.80
2023-03-22T10:06:23.016Z,5.47
2023-03-22T10:09:11.129Z,5.47
2023-03-22T10:11:53.400Z,5.95
2023-03-22T10:17:00.529Z,6.38
2023-03-22T10:19:58.996Z,6.13
2023-03-22T10:22:33.029Z,4.93
2023-03-22T10:25:00.942Z,4.63
2023-03-22T10:27:31.578Z,4.13
2023-03-22T10:30:18.372Z,4.00
2023-03-22T10:32:57.801Z,3.75
2023-03-22T10:35:25.292Z,3.60
2023-03-22T10:37:52.902Z,3.20
2023-03-22T10:40:29.725Z,2.90
2023-03-22T10:43:00.988Z,3.58
2023-03-22T10:45:28.330Z,3.60
2023-03-22T10:48:05.653Z,3.35
2023-03-22T10:50:36.539Z,3.47
2023-03-22T10:53:06.908Z,3.33
2023-03-22T10:55:41.054Z,3.30
2023-03-22T10:58:19.552Z,3.22
2023-03-22T11:00:56.871Z,3.58
2023-03-22T11:03:28.266Z,3.35
2023-03-22T11:06:02.889Z,4.07
2023-03-22T11:08:29.530Z,3.35
2023-03-22T11:11:00.187Z,3.42
2023-03-22T11:13:27.097Z,3.38
2023-03-22T11:16:02.293Z,3.40
2023-03-22T11:18:32.209Z,3.40
2023-03-22T11:21:04.428Z,3.40
2023-03-22T11:23:34.862Z,3.67
2023-03-22T11:26:29.464Z,3.42
2023-03-22T11:29:04.931Z,3.03
2023-03-22T11:31:51.240Z,3.60
2023-03-22T11:34:22.910Z,3.63
2023-03-22T11:36:56.612Z,3.28
2023-03-22T11:39:26.512Z,3.55
2023-03-22T11:41:57.583Z,3.60
2023-03-22T11:44:27.043Z,2.90
2023-03-22T11:47:00.541Z,3.97
2023-03-22T11:49:52.498Z,4.15
2023-03-22T11:52:23.511Z,3.80
2023-03-22T11:54:51.195Z,3.83
2023-03-22T11:57:23.431Z,4.32
2023-03-22T12:00:08.081Z,4.30
2023-03-22T12:02:40.960Z,3.83
2023-03-22T12:05:27.246Z,4.18
2023-03-22T12:08:11.740Z,3.80
2023-03-22T12:10:48.368Z,3.55
2023-03-22T12:13:44.089Z,3.88
2023-03-22T12:16:14.067Z,4.10
2023-03-22T12:18:48.619Z,4.47
2023-03-22T12:21:15.852Z,4.30
2023-03-22T12:23:42.844Z,4.28
2023-03-22T12:26:12.401Z,4.30
2023-03-22T12:28:50.667Z,4.10
2023-03-22T12:31:46.499Z,4.50
2023-03-22T12:34:19.225Z,4.07
2023-03-22T12:36:54.315Z,4.07
2023-03-22T12:39:35.046Z,3.90
2023-03-22T12:42:10.844Z,4.07
2023-03-22T12:44:44.874Z,4.13
2023-03-22T12:47:30.644Z,4.15
2023-03-22T12:50:03.909Z,3.53
2023-03-22T12:52:46.197Z,3.97
2023-03-22T12:55:18.991Z,4.55
2023-03-22T12:57:51.216Z,4.40
2023-03-22T13:00:27.653Z,4.20
2023-03-22T13:03:17.572Z,4.80
2023-03-22T13:05:47.287Z,3.97
2023-03-22T13:08:20.034Z,4.35
2023-03-22T13:10:49.176Z,3.97
2023-03-22T13:13:17.434Z,4.35
2023-03-22T13:15:57.620Z,4.28
2023-03-22T13:18:36.396Z,3.42
2023-03-22T13:21:16.541Z,4.05
2023-03-22T13:24:07.458Z,4.15
2023-03-22T13:26:39.708Z,4.07
2023-03-22T13:29:18.645Z,3.88
2023-03-22T13:31:50.981Z,4.43
2023-03-22T13:34:31.866Z,4.43
2023-03-22T13:37:03.608Z,4.50
2023-03-22T13:39:36.065Z,4.38
2023-03-22T13:42:08.442Z,4.68
2023-03-22T13:44:43.009Z,4.50
2023-03-22T13:47:29.801Z,3.28
2023-03-22T13:50:23.596Z,3.13
2023-03-22T13:53:00.125Z,3.40
2023-03-22T13:55:51.836Z,3.67
2023-03-22T13:58:36.028Z,3.70
2023-03-22T14:01:13.529Z,4.47
2023-03-22T14:03:46.412Z,4.10
2023-03-22T14:06:25.670Z,3.60
2023-03-22T14:09:02.362Z,3.83
2023-03-22T14:11:52.938Z,4.00
2023-03-22T14:14:25.902Z,3.75
2023-03-22T14:19:31.622Z,3.63
